WMT7041 LTFM-LGAV
Flight info
| Callsign | WMT7041 |
|---|---|
| Flight time | N/A |
| Altitude | 36000 |
| Route | IVGUS UY226 BIG UN604 OGSIL |
| Aircraft | A321/M-SDE3FGHIRWY/LB1 |
Departure
| Time | 2026-05-01 14:05 |
|---|---|
| Airport | İstanbul Airport (LTFM) |
Arrival
| Time | N/A |
|---|---|
| Airport | Athens Eleftherios Venizelos International Airport (LGAV) |
| Time | Latitude | Longitude | Altitude | Speed | Heading |
|---|---|---|---|---|---|
| 2026-05-01 13:49 | 41.26621 | 28.71988 | 177 ft | 0 kts | 360° |
| 2026-05-01 14:01 | 41.26622 | 28.71988 | 176 ft | 1 kts | 360° |
| 2026-05-01 14:01 | 41.26638 | 28.71987 | 176 ft | 4 kts | 359° |
| 2026-05-01 14:02 | 41.26671 | 28.71993 | 176 ft | 6 kts | 23° |
| 2026-05-01 14:02 | 41.26700 | 28.72042 | 176 ft | 8 kts | 66° |
| 2026-05-01 14:02 | 41.26705 | 28.72122 | 176 ft | 10 kts | 91° |
| 2026-05-01 14:02 | 41.26701 | 28.72220 | 176 ft | 12 kts | 92° |
| 2026-05-01 14:03 | 41.26700 | 28.72336 | 177 ft | 13 kts | 90° |
| 2026-05-01 14:03 | 41.26702 | 28.72462 | 178 ft | 14 kts | 77° |
| 2026-05-01 14:03 | 41.26748 | 28.72510 | 178 ft | 0 kts | 4° |
| 2026-05-01 14:04 | 41.26831 | 28.72510 | 178 ft | 41 kts | 360° |
| 2026-05-01 14:04 | 41.27342 | 28.72503 | 174 ft | 103 kts | 359° |
| 2026-05-01 14:04 | 41.28220 | 28.72486 | 181 ft | 148 kts | 5° |
| 2026-05-01 14:04 | 41.29242 | 28.72396 | 774 ft | 147 kts | 1° |
| 2026-05-01 14:05 | 41.30341 | 28.72309 | 1249 ft | 167 kts | 3° |
| 2026-05-01 14:05 | 41.31570 | 28.72292 | 1591 ft | 191 kts | 5° |
| 2026-05-01 14:05 | 41.32984 | 28.72341 | 2134 ft | 212 kts | 4° |
| 2026-05-01 14:05 | 41.34504 | 28.72400 | 2892 ft | 220 kts | 5° |
| 2026-05-01 14:06 | 41.35564 | 28.72439 | 3527 ft | 224 kts | 5° |
| 2026-05-01 14:06 | 41.35592 | 28.72440 | 3540 ft | 224 kts | 5° |
| 2026-05-01 14:06 | 41.36442 | 28.72392 | 3790 ft | 238 kts | 353° |
| 2026-05-01 14:06 | 41.37835 | 28.71600 | 4566 ft | 254 kts | 328° |
| 2026-05-01 14:07 | 41.38909 | 28.69650 | 5419 ft | 274 kts | 293° |
| 2026-05-01 14:07 | 41.38995 | 28.67069 | 6284 ft | 289 kts | 258° |
| 2026-05-01 14:07 | 41.38063 | 28.64681 | 7177 ft | 294 kts | 234° |
| 2026-05-01 14:08 | 41.35170 | 28.60764 | 8950 ft | 295 kts | 223° |
| 2026-05-01 14:08 | 41.33652 | 28.58976 | 9879 ft | 294 kts | 224° |
| 2026-05-01 14:08 | 41.32117 | 28.57134 | 10477 ft | 306 kts | 224° |
| 2026-05-01 14:08 | 41.30504 | 28.55120 | 10623 ft | 329 kts | 225° |
| 2026-05-01 14:09 | 41.28817 | 28.52938 | 10948 ft | 344 kts | 226° |
| 2026-05-01 14:09 | 41.27109 | 28.50673 | 11588 ft | 348 kts | 227° |
| 2026-05-01 14:09 | 41.25416 | 28.48400 | 12297 ft | 350 kts | 227° |
| 2026-05-01 14:09 | 41.23705 | 28.46091 | 13023 ft | 352 kts | 226° |
| 2026-05-01 14:10 | 41.21979 | 28.43759 | 13709 ft | 354 kts | 226° |
| 2026-05-01 14:10 | 41.20237 | 28.41409 | 14309 ft | 357 kts | 227° |
| 2026-05-01 14:10 | 41.18489 | 28.39059 | 14953 ft | 358 kts | 227° |
| 2026-05-01 14:10 | 41.16734 | 28.36711 | 15601 ft | 358 kts | 227° |
| 2026-05-01 14:11 | 41.14973 | 28.34360 | 16132 ft | 362 kts | 227° |
| 2026-05-01 14:11 | 41.11416 | 28.29613 | 17277 ft | 367 kts | 227° |
| 2026-05-01 14:11 | 41.09615 | 28.27215 | 17900 ft | 368 kts | 227° |
| 2026-05-01 14:12 | 41.07802 | 28.24801 | 18533 ft | 369 kts | 227° |
| 2026-05-01 14:12 | 41.05981 | 28.22374 | 18998 ft | 373 kts | 227° |
| 2026-05-01 14:12 | 41.04139 | 28.19920 | 19465 ft | 376 kts | 227° |
| 2026-05-01 14:12 | 41.02283 | 28.17453 | 19981 ft | 378 kts | 227° |
| 2026-05-01 14:13 | 41.00422 | 28.14986 | 20535 ft | 379 kts | 227° |
| 2026-05-01 14:13 | 40.99119 | 28.13439 | 20849 ft | 382 kts | 222° |
| 2026-05-01 14:13 | 40.96332 | 28.10463 | 21470 ft | 386 kts | 220° |
| 2026-05-01 14:13 | 40.94236 | 28.08293 | 21941 ft | 388 kts | 220° |
| 2026-05-01 14:14 | 40.92097 | 28.06099 | 22406 ft | 391 kts | 220° |
| 2026-05-01 14:14 | 40.89931 | 28.03877 | 22813 ft | 394 kts | 220° |
| 2026-05-01 14:14 | 40.87760 | 28.01640 | 23248 ft | 396 kts | 220° |
| 2026-05-01 14:14 | 40.85575 | 27.99383 | 23679 ft | 398 kts | 220° |
| 2026-05-01 14:15 | 40.83419 | 27.97155 | 24086 ft | 400 kts | 220° |
| 2026-05-01 14:15 | 40.81225 | 27.94889 | 24465 ft | 401 kts | 220° |
| 2026-05-01 14:15 | 40.79022 | 27.92616 | 24832 ft | 403 kts | 220° |
| 2026-05-01 14:15 | 40.76804 | 27.90328 | 25194 ft | 404 kts | 220° |
| 2026-05-01 14:16 | 40.74581 | 27.88037 | 25548 ft | 406 kts | 220° |
| 2026-05-01 14:16 | 40.72352 | 27.85741 | 25905 ft | 407 kts | 221° |
| 2026-05-01 14:16 | 40.70112 | 27.83435 | 26275 ft | 408 kts | 221° |
| 2026-05-01 14:16 | 40.67896 | 27.81153 | 26672 ft | 409 kts | 221° |
| 2026-05-01 14:17 | 40.65649 | 27.78842 | 27069 ft | 410 kts | 221° |
| 2026-05-01 14:17 | 40.63388 | 27.76520 | 27451 ft | 412 kts | 221° |
| 2026-05-01 14:17 | 40.61120 | 27.74197 | 27818 ft | 413 kts | 221° |
| 2026-05-01 14:17 | 40.58838 | 27.71866 | 28193 ft | 415 kts | 221° |
| 2026-05-01 14:18 | 40.56560 | 27.69543 | 28682 ft | 413 kts | 221° |
| 2026-05-01 14:18 | 40.54315 | 27.67259 | 29665 ft | 398 kts | 222° |
| 2026-05-01 14:18 | 40.52208 | 27.65116 | 30857 ft | 378 kts | 223° |
| 2026-05-01 14:18 | 40.50825 | 27.63709 | 31609 ft | 364 kts | 223° |
| 2026-05-01 14:19 | 40.48255 | 27.61096 | 32933 ft | 344 kts | 224° |
| 2026-05-01 14:19 | 40.46376 | 27.59177 | 33378 ft | 341 kts | 224° |
| 2026-05-01 14:19 | 40.44500 | 27.57257 | 33686 ft | 342 kts | 224° |
| 2026-05-01 14:19 | 40.42613 | 27.55325 | 33942 ft | 344 kts | 224° |
| 2026-05-01 14:20 | 40.40713 | 27.53383 | 34145 ft | 346 kts | 224° |
| 2026-05-01 14:20 | 40.36934 | 27.49538 | 34609 ft | 347 kts | 224° |
| 2026-05-01 14:20 | 40.35022 | 27.47597 | 34815 ft | 348 kts | 224° |
| 2026-05-01 14:21 | 40.33095 | 27.45641 | 34981 ft | 351 kts | 224° |
| 2026-05-01 14:21 | 40.31157 | 27.43674 | 35121 ft | 354 kts | 224° |
| 2026-05-01 14:21 | 40.29192 | 27.41686 | 35283 ft | 357 kts | 224° |
| 2026-05-01 14:22 | 40.25260 | 27.37716 | 35632 ft | 361 kts | 224° |
| 2026-05-01 14:22 | 40.23271 | 27.35709 | 35839 ft | 361 kts | 224° |
| 2026-05-01 14:22 | 40.21271 | 27.33692 | 36008 ft | 364 kts | 224° |
| 2026-05-01 14:22 | 40.19252 | 27.31657 | 36158 ft | 367 kts | 224° |
| 2026-05-01 14:23 | 40.15167 | 27.27531 | 36197 ft | 380 kts | 224° |
| 2026-05-01 14:23 | 40.10899 | 27.23223 | 36203 ft | 394 kts | 224° |
| 2026-05-01 14:24 | 40.06484 | 27.18789 | 36192 ft | 407 kts | 224° |
| 2026-05-01 14:24 | 40.01949 | 27.14240 | 36191 ft | 421 kts | 223° |
| 2026-05-01 14:25 | 39.97255 | 27.09550 | 36186 ft | 426 kts | 223° |
| 2026-05-01 14:25 | 39.92541 | 27.04859 | 36161 ft | 425 kts | 224° |
| 2026-05-01 14:26 | 39.85540 | 26.97885 | 36174 ft | 423 kts | 224° |
| 2026-05-01 14:27 | 39.80855 | 26.93226 | 36167 ft | 423 kts | 224° |
| 2026-05-01 14:27 | 39.76168 | 26.88580 | 36135 ft | 424 kts | 223° |
| 2026-05-01 14:28 | 39.68931 | 26.81965 | 36162 ft | 426 kts | 221° |
| 2026-05-01 14:28 | 39.64023 | 26.77625 | 36161 ft | 426 kts | 221° |
| 2026-05-01 14:29 | 39.59146 | 26.73251 | 36159 ft | 426 kts | 221° |
| 2026-05-01 14:30 | 39.49453 | 26.64502 | 36146 ft | 426 kts | 221° |
| 2026-05-01 14:31 | 39.42134 | 26.57917 | 36112 ft | 426 kts | 222° |
| 2026-05-01 14:31 | 39.37296 | 26.53586 | 36148 ft | 426 kts | 221° |
| 2026-05-01 14:32 | 39.32374 | 26.49314 | 36137 ft | 429 kts | 217° |
| 2026-05-01 14:32 | 39.27178 | 26.45500 | 36094 ft | 429 kts | 217° |
| 2026-05-01 14:33 | 39.22382 | 26.41137 | 36125 ft | 413 kts | 232° |
| 2026-05-01 14:33 | 39.18753 | 26.35483 | 36130 ft | 408 kts | 237° |
| 2026-05-01 14:34 | 39.15197 | 26.29787 | 36128 ft | 408 kts | 237° |
| 2026-05-01 14:34 | 39.11655 | 26.24130 | 36091 ft | 408 kts | 237° |
| 2026-05-01 14:35 | 39.08086 | 26.18443 | 36102 ft | 407 kts | 237° |
| 2026-05-01 14:35 | 39.04533 | 26.12770 | 36106 ft | 407 kts | 237° |
| 2026-05-01 14:36 | 39.00994 | 26.07140 | 36107 ft | 407 kts | 237° |
| 2026-05-01 14:36 | 38.97424 | 26.01473 | 36103 ft | 406 kts | 237° |
| 2026-05-01 14:37 | 38.93865 | 25.95824 | 36097 ft | 405 kts | 238° |
| 2026-05-01 14:37 | 38.90336 | 25.90241 | 36114 ft | 404 kts | 237° |
| 2026-05-01 14:38 | 38.87686 | 25.86045 | 36116 ft | 404 kts | 237° |
| 2026-05-01 14:39 | 38.87402 | 25.85595 | 36117 ft | 404 kts | 237° |
| 2026-05-01 14:39 | 38.85632 | 25.82792 | 36113 ft | 404 kts | 237° |
| 2026-05-01 14:40 | 38.82085 | 25.77200 | 36113 ft | 403 kts | 237° |
| 2026-05-01 14:40 | 38.78532 | 25.71615 | 36100 ft | 402 kts | 238° |
| 2026-05-01 14:41 | 38.75018 | 25.66102 | 36105 ft | 401 kts | 238° |
| 2026-05-01 14:41 | 38.71485 | 25.60557 | 36129 ft | 401 kts | 237° |
| 2026-05-01 14:42 | 38.67959 | 25.55024 | 36112 ft | 401 kts | 237° |
| 2026-05-01 14:42 | 38.64443 | 25.49526 | 36092 ft | 400 kts | 238° |
| 2026-05-01 14:43 | 38.61511 | 25.44955 | 36105 ft | 399 kts | 238° |
| 2026-05-01 14:44 | 38.57578 | 25.38827 | 36118 ft | 398 kts | 238° |
| 2026-05-01 14:44 | 38.52938 | 25.31628 | 36118 ft | 386 kts | 238° |
| 2026-05-01 14:45 | 38.47876 | 25.23760 | 35665 ft | 379 kts | 238° |
| 2026-05-01 14:45 | 38.46205 | 25.21165 | 35112 ft | 378 kts | 238° |
| 2026-05-01 14:46 | 38.44530 | 25.18573 | 34573 ft | 377 kts | 238° |
| 2026-05-01 14:46 | 38.41199 | 25.13427 | 33399 ft | 374 kts | 239° |
| 2026-05-01 14:46 | 38.39561 | 25.10900 | 32689 ft | 375 kts | 238° |
| 2026-05-01 14:47 | 38.37880 | 25.08306 | 31927 ft | 376 kts | 238° |
| 2026-05-01 14:47 | 38.36212 | 25.05729 | 31163 ft | 378 kts | 238° |
| 2026-05-01 14:47 | 38.34533 | 25.03135 | 30359 ft | 380 kts | 239° |
| 2026-05-01 14:48 | 38.31176 | 24.97961 | 28743 ft | 379 kts | 238° |
| 2026-05-01 14:48 | 38.29497 | 24.95388 | 28064 ft | 376 kts | 237° |
| 2026-05-01 14:48 | 38.26167 | 24.90296 | 26730 ft | 371 kts | 237° |
| 2026-05-01 14:49 | 38.22907 | 24.85308 | 25442 ft | 366 kts | 236° |
| 2026-05-01 14:49 | 38.19667 | 24.80343 | 24204 ft | 362 kts | 235° |
| 2026-05-01 14:50 | 38.16989 | 24.76250 | 23018 ft | 360 kts | 237° |
| 2026-05-01 14:50 | 38.13541 | 24.70295 | 21479 ft | 355 kts | 238° |
| 2026-05-01 14:51 | 38.12090 | 24.67750 | 20884 ft | 354 kts | 238° |
| 2026-05-01 14:51 | 38.09237 | 24.62725 | 19770 ft | 351 kts | 238° |
| 2026-05-01 14:52 | 38.06410 | 24.57703 | 18641 ft | 348 kts | 238° |
| 2026-05-01 14:52 | 38.05011 | 24.55198 | 18001 ft | 347 kts | 238° |
| 2026-05-01 14:52 | 38.02242 | 24.50214 | 16808 ft | 343 kts | 238° |
| 2026-05-01 14:53 | 38.00878 | 24.47742 | 16194 ft | 341 kts | 238° |
| 2026-05-01 14:53 | 37.99534 | 24.45304 | 15595 ft | 341 kts | 238° |
| 2026-05-01 14:53 | 37.98182 | 24.42841 | 14998 ft | 340 kts | 238° |
| 2026-05-01 14:53 | 37.96838 | 24.40388 | 14440 ft | 338 kts | 238° |
| 2026-05-01 14:54 | 37.95497 | 24.37942 | 13926 ft | 336 kts | 238° |
| 2026-05-01 14:54 | 37.94171 | 24.35501 | 13268 ft | 336 kts | 238° |
| 2026-05-01 14:54 | 37.92840 | 24.33071 | 12697 ft | 333 kts | 237° |
| 2026-05-01 14:54 | 37.91513 | 24.30680 | 12171 ft | 330 kts | 238° |
| 2026-05-01 14:55 | 37.90191 | 24.28307 | 11547 ft | 329 kts | 240° |
| 2026-05-01 14:55 | 37.88891 | 24.25963 | 10973 ft | 329 kts | 239° |
| 2026-05-01 14:55 | 37.87584 | 24.23591 | 10493 ft | 325 kts | 238° |
| 2026-05-01 14:55 | 37.86330 | 24.21301 | 10364 ft | 303 kts | 238° |
| 2026-05-01 14:56 | 37.85168 | 24.19198 | 10215 ft | 281 kts | 238° |
| 2026-05-01 14:56 | 37.84074 | 24.17241 | 9769 ft | 272 kts | 238° |
| 2026-05-01 14:56 | 37.82981 | 24.15278 | 9304 ft | 272 kts | 239° |
| 2026-05-01 14:56 | 37.81892 | 24.13312 | 8921 ft | 273 kts | 238° |
| 2026-05-01 14:57 | 37.80814 | 24.11351 | 8655 ft | 265 kts | 238° |
| 2026-05-01 14:57 | 37.78716 | 24.07604 | 8019 ft | 262 kts | 239° |
| 2026-05-01 14:57 | 37.77662 | 24.05734 | 7789 ft | 262 kts | 239° |
| 2026-05-01 14:58 | 37.76603 | 24.03851 | 7515 ft | 263 kts | 238° |
| 2026-05-01 14:58 | 37.75552 | 24.01949 | 7173 ft | 264 kts | 237° |
| 2026-05-01 14:58 | 37.74513 | 24.00023 | 6855 ft | 265 kts | 238° |
| 2026-05-01 14:58 | 37.73491 | 23.98081 | 6528 ft | 267 kts | 239° |
| 2026-05-01 14:59 | 37.72446 | 23.96126 | 6154 ft | 268 kts | 237° |
| 2026-05-01 14:59 | 37.71390 | 23.94177 | 5781 ft | 270 kts | 238° |
| 2026-05-01 14:59 | 37.70326 | 23.92240 | 5462 ft | 272 kts | 238° |
| 2026-05-01 14:59 | 37.69259 | 23.90275 | 5172 ft | 271 kts | 238° |
| 2026-05-01 15:00 | 37.68183 | 23.85937 | 4494 ft | 256 kts | 286° |
| 2026-05-01 15:00 | 37.68861 | 23.83914 | 4161 ft | 247 kts | 312° |
| 2026-05-01 15:00 | 37.70146 | 23.82608 | 3849 ft | 234 kts | 343° |
| 2026-05-01 15:01 | 37.71695 | 23.82122 | 3538 ft | 228 kts | 354° |
| 2026-05-01 15:01 | 37.73225 | 23.81806 | 3406 ft | 215 kts | 355° |
| 2026-05-01 15:01 | 37.74647 | 23.81515 | 3275 ft | 198 kts | 355° |
| 2026-05-01 15:01 | 37.75936 | 23.81244 | 3146 ft | 183 kts | 355° |
| 2026-05-01 15:02 | 37.77135 | 23.80988 | 3040 ft | 165 kts | 355° |
| 2026-05-01 15:02 | 37.77855 | 23.80831 | 3010 ft | 153 kts | 355° |
| 2026-05-01 15:02 | 37.79220 | 23.80525 | 2990 ft | 145 kts | 359° |
| 2026-05-01 15:02 | 37.80189 | 23.80664 | 2987 ft | 139 kts | 23° |
| 2026-05-01 15:03 | 37.80999 | 23.81313 | 2985 ft | 137 kts | 34° |
| 2026-05-01 15:03 | 37.81759 | 23.82032 | 2877 ft | 136 kts | 34° |
| 2026-05-01 15:03 | 37.82516 | 23.82749 | 2730 ft | 135 kts | 34° |
| 2026-05-01 15:03 | 37.83269 | 23.83462 | 2557 ft | 135 kts | 34° |
| 2026-05-01 15:04 | 37.84015 | 23.84169 | 2397 ft | 136 kts | 34° |
| 2026-05-01 15:04 | 37.84777 | 23.84891 | 2196 ft | 137 kts | 34° |
| 2026-05-01 15:04 | 37.85530 | 23.85604 | 2009 ft | 133 kts | 34° |
| 2026-05-01 15:04 | 37.86272 | 23.86308 | 1826 ft | 132 kts | 34° |
| 2026-05-01 15:05 | 37.87017 | 23.87014 | 1651 ft | 132 kts | 34° |
| 2026-05-01 15:05 | 37.87736 | 23.87696 | 1480 ft | 127 kts | 35° |
| 2026-05-01 15:05 | 37.88433 | 23.88357 | 1301 ft | 125 kts | 34° |
| 2026-05-01 15:05 | 37.89128 | 23.89017 | 1105 ft | 123 kts | 35° |
| 2026-05-01 15:06 | 37.89839 | 23.89697 | 938 ft | 131 kts | 34° |
| 2026-05-01 15:06 | 37.90562 | 23.90386 | 719 ft | 132 kts | 34° |
| 2026-05-01 15:06 | 37.91277 | 23.91057 | 553 ft | 125 kts | 34° |
| 2026-05-01 15:06 | 37.91983 | 23.91728 | 374 ft | 131 kts | 34° |
| 2026-05-01 15:07 | 37.92692 | 23.92422 | 533 ft | 134 kts | 35° |
| 2026-05-01 15:07 | 37.93501 | 23.93161 | 1029 ft | 154 kts | 32° |
| 2026-05-01 15:07 | 37.94441 | 23.93929 | 1576 ft | 164 kts | 29° |
| 2026-05-01 15:07 | 37.95434 | 23.94758 | 1920 ft | 183 kts | 34° |
| 2026-05-01 15:08 | 37.96493 | 23.95725 | 2583 ft | 190 kts | 34° |
| 2026-05-01 15:08 | 37.97565 | 23.96714 | 3493 ft | 191 kts | 34° |
| 2026-05-01 15:08 | 37.98648 | 23.97701 | 4302 ft | 194 kts | 34° |
| 2026-05-01 15:08 | 37.99660 | 23.98879 | 4877 ft | 205 kts | 54° |
| 2026-05-01 15:09 | 38.00054 | 24.00632 | 4979 ft | 215 kts | 88° |
| 2026-05-01 15:09 | 37.99563 | 24.02450 | 5002 ft | 227 kts | 121° |
| 2026-05-01 15:09 | 37.98300 | 24.03692 | 5006 ft | 238 kts | 156° |
| 2026-05-01 15:09 | 37.96677 | 24.04081 | 4983 ft | 243 kts | 173° |
| 2026-05-01 15:10 | 37.94980 | 24.04207 | 4980 ft | 246 kts | 175° |
| 2026-05-01 15:10 | 37.91536 | 24.04372 | 4983 ft | 250 kts | 175° |
| 2026-05-01 15:10 | 37.89789 | 24.04435 | 4982 ft | 252 kts | 175° |
| 2026-05-01 15:11 | 37.88028 | 24.04467 | 4986 ft | 253 kts | 183° |
| 2026-05-01 15:11 | 37.84905 | 24.02626 | 4983 ft | 249 kts | 215° |
| 2026-05-01 15:11 | 37.83473 | 24.01413 | 4986 ft | 249 kts | 215° |
| 2026-05-01 15:12 | 37.82031 | 24.00185 | 4984 ft | 246 kts | 216° |
| 2026-05-01 15:12 | 37.79201 | 23.97791 | 4619 ft | 247 kts | 215° |
| 2026-05-01 15:12 | 37.77768 | 23.96565 | 4296 ft | 248 kts | 216° |
| 2026-05-01 15:13 | 37.73618 | 23.92739 | 3983 ft | 243 kts | 238° |
| 2026-05-01 15:14 | 37.72899 | 23.88771 | 3748 ft | 230 kts | 274° |
| 2026-05-01 15:14 | 37.72875 | 23.86772 | 3445 ft | 230 kts | 275° |
| 2026-05-01 15:14 | 37.72843 | 23.82698 | 2987 ft | 238 kts | 276° |
| 2026-05-01 15:15 | 37.73097 | 23.78577 | 2983 ft | 228 kts | 305° |
| 2026-05-01 15:15 | 37.75488 | 23.76780 | 2994 ft | 201 kts | 7° |
| 2026-05-01 15:16 | 37.77874 | 23.78344 | 2984 ft | 186 kts | 35° |
| 2026-05-01 15:16 | 37.79706 | 23.80089 | 2983 ft | 145 kts | 35° |
| 2026-05-01 15:17 | 37.81181 | 23.81486 | 2967 ft | 129 kts | 34° |
| 2026-05-01 15:18 | 37.83304 | 23.83495 | 2553 ft | 127 kts | 34° |
| 2026-05-01 15:18 | 37.84013 | 23.84167 | 2394 ft | 127 kts | 35° |
| 2026-05-01 15:19 | 37.86111 | 23.86155 | 1873 ft | 127 kts | 34° |
| 2026-05-01 15:19 | 37.87509 | 23.87480 | 1514 ft | 126 kts | 33° |
| 2026-05-01 15:19 | 37.88209 | 23.88144 | 1341 ft | 125 kts | 33° |
| 2026-05-01 15:20 | 37.89594 | 23.89460 | 987 ft | 126 kts | 34° |
| 2026-05-01 15:20 | 37.90299 | 23.90137 | 799 ft | 127 kts | 33° |
| 2026-05-01 15:20 | 37.91008 | 23.90804 | 636 ft | 126 kts | 34° |
| 2026-05-01 15:21 | 37.91712 | 23.91480 | 464 ft | 128 kts | 36° |
| 2026-05-01 15:21 | 37.92418 | 23.92143 | 307 ft | 126 kts | 35° |
| 2026-05-01 15:21 | 37.93045 | 23.92731 | 274 ft | 98 kts | 34° |
| 2026-05-01 15:21 | 37.93462 | 23.93119 | 282 ft | 54 kts | 37° |